Time,TemperatureF,DewpointF,PressureIn,WindDirection,WindDirectionDegrees,WindSpeedMPH,WindSpeedGustMPH,Humidity,HourlyPrecipIn,Conditions,Clouds,dailyrainin,SoftwareType,DateUTC
2013-03-23 00:00:00,27.7,24.6,29.80,WSW,247,4.7,6.9,88,0.00,,,0.00,WUHU21623XXSP,2013-03-23 04:00:00,
2013-03-23 00:05:00,27.7,24.6,29.80,NW,315,12.8,12.8,88,0.00,,,0.00,WUHU21623XXSP,2013-03-23 04:05:00,
2013-03-23 00:10:00,27.7,24.6,29.80,WSW,247,6.5,12.8,88,0.00,,,0.00,WUHU21623XXSP,2013-03-23 04:10:00,
2013-03-23 00:15:00,27.7,24.6,29.80,West,270,0.0,8.3,88,0.00,,,0.00,WUHU21623XXSP,2013-03-23 04:15:00,
2013-03-23 00:20:00,27.7,24.6,29.79,WSW,247,8.5,8.5,88,0.00,,,0.00,WUHU21623XXSP,2013-03-23 04:20:00,
2013-03-23 00:25:00,27.7,24.6,29.79,West,270,6.9,8.5,88,0.00,,,0.00,WUHU21623XXSP,2013-03-23 04:25:00,
2013-03-23 00:30:00,27.7,24.6,29.79,West,270,2.0,8.5,88,0.00,,,0.00,WUHU21623XXSP,2013-03-23 04:30:00,
2013-03-23 00:35:00,27.7,24.6,29.79,NNW,337,7.2,8.1,88,0.00,,,0.00,WUHU21623XXSP,2013-03-23 04:35:00,
2013-03-23 00:40:00,27.7,24.6,29.79,West,270,4.5,9.8,88,0.00,,,0.00,WUHU21623XXSP,2013-03-23 04:40:00,
2013-03-23 00:45:00,27.7,24.6,29.79,West,270,4.0,9.8,88,0.00,,,0.00,WUHU21623XXSP,2013-03-23 04:45:00,
2013-03-23 00:50:00,27.7,24.6,29.79,WNW,292,7.2,8.7,88,0.00,,,0.00,WUHU21623XXSP,2013-03-23 04:50:00,
2013-03-23 00:52:00,27.7,24.6,29.79,WSW,247,6.0,6.0,88,0.00,,,0.00,WUHU21623XXSP,2013-03-23 04:52:00,
2013-03-23 00:55:00,27.7,24.6,29.79,West,270,5.8,8.5,88,0.00,,,0.00,WUHU21623XXSP,2013-03-23 04:55:00,
2013-03-23 01:00:00,27.7,24.6,29.79,WSW,247,6.0,7.8,88,0.00,,,0.00,WUHU21623XXSP,2013-03-23 05:00:00,
2013-03-23 01:05:00,27.7,24.6,29.78,WNW,292,5.6,6.0,88,0.00,,,0.00,WUHU21623XXSP,2013-03-23 05:05:00,
2013-03-23 01:10:00,27.7,24.6,29.79,West,270,3.8,5.6,88,0.00,,,0.00,WUHU21623XXSP,2013-03-23 05:10:00,
2013-03-23 01:15:00,27.7,24.6,29.79,NW,315,6.7,6.7,88,0.00,,,0.00,WUHU21623XXSP,2013-03-23 05:15:00,
2013-03-23 01:20:00,27.7,24.6,29.79,NW,315,6.9,6.9,88,0.00,,,0.00,WUHU21623XXSP,2013-03-23 05:20:00,
2013-03-23 01:25:00,27.7,24.6,29.79,WNW,292,7.6,7.6,88,0.00,,,0.00,WUHU21623XXSP,2013-03-23 05:25:00,
2013-03-23 01:30:00,27.7,24.6,29.79,WNW,292,4.3,8.3,88,0.00,,,0.00,WUHU21623XXSP,2013-03-23 05:30:00,
2013-03-23 01:35:00,27.7,24.6,29.79,WNW,292,4.3,8.3,88,0.00,,,0.00,WUHU21623XXSP,2013-03-23 05:35:00,
2013-03-23 01:40:00,27.7,24.6,29.79,NW,315,1.8,6.9,88,0.00,,,0.00,WUHU21623XXSP,2013-03-23 05:40:00,
2013-03-23 01:45:00,27.7,24.6,29.79,WNW,292,5.6,7.2,88,0.00,,,0.00,WUHU21623XXSP,2013-03-23 05:45:00,
2013-03-23 01:50:00,27.7,24.6,29.79,WNW,292,1.6,7.2,88,0.00,,,0.00,WUHU21623XXSP,2013-03-23 05:50:00,
2013-03-23 01:55:00,27.7,24.6,29.79,WNW,292,3.6,6.3,88,0.00,,,0.00,WUHU21623XXSP,2013-03-23 05:55:00,
2013-03-23 02:00:00,27.5,24.4,29.79,WNW,292,4.3,6.3,88,0.00,,,0.00,WUHU21623XXSP,2013-03-23 06:00:00,
2013-03-23 02:05:00,27.7,24.6,29.79,WNW,292,1.3,7.6,88,0.00,,,0.00,WUHU21623XXSP,2013-03-23 06:05:00,
2013-03-23 02:10:00,27.7,24.6,29.79,WNW,292,8.1,8.1,88,0.00,,,0.00,WUHU21623XXSP,2013-03-23 06:10:00,
2013-03-23 02:15:00,27.5,24.4,29.79,West,270,6.0,8.1,88,0.00,,,0.00,WUHU21623XXSP,2013-03-23 06:15:00,
2013-03-23 02:20:00,27.5,24.4,29.79,West,270,7.2,10.1,88,0.00,,,0.00,WUHU21623XXSP,2013-03-23 06:20:00,
2013-03-23 02:25:00,27.5,24.4,29.79,NW,315,7.4,10.1,88,0.00,,,0.00,WUHU21623XXSP,2013-03-23 06:25:00,
2013-03-23 02:30:00,27.5,24.4,29.79,NW,315,7.4,7.4,88,0.00,,,0.00,WUHU21623XXSP,2013-03-23 06:30:00,
2013-03-23 02:35:00,27.3,23.9,29.79,West,270,7.2,7.4,87,0.00,,,0.00,WUHU21623XXSP,2013-03-23 06:35:00,
2013-03-23 02:40:00,27.3,23.9,29.79,NNW,337,7.6,7.6,87,0.00,,,0.00,WUHU21623XXSP,2013-03-23 06:40:00,
2013-03-23 02:45:00,27.3,23.9,29.79,WNW,292,6.0,9.2,87,0.00,,,0.00,WUHU21623XXSP,2013-03-23 06:45:00,
2013-03-23 02:50:00,27.3,23.9,29.79,NW,315,1.6,9.2,87,0.00,,,0.00,WUHU21623XXSP,2013-03-23 06:50:00,
2013-03-23 02:55:00,27.3,23.9,29.79,NW,315,1.6,8.3,87,0.00,,,0.00,WUHU21623XXSP,2013-03-23 06:55:00,
2013-03-23 03:00:00,27.5,24.4,29.79,West,270,8.3,8.3,88,0.00,,,0.00,WUHU21623XXSP,2013-03-23 07:00:00,
2013-03-23 03:05:00,27.5,24.4,29.78,West,270,0.0,8.3,88,0.00,,,0.00,WUHU21623XXSP,2013-03-23 07:05:00,
2013-03-23 03:10:00,27.5,24.4,29.79,WNW,292,2.7,7.4,88,0.00,,,0.00,WUHU21623XXSP,2013-03-23 07:10:00,
2013-03-23 03:15:00,27.5,24.4,29.78,NW,315,3.4,7.4,88,0.00,,,0.00,WUHU21623XXSP,2013-03-23 07:15:00,
2013-03-23 03:20:00,27.5,24.4,29.78,WNW,292,3.4,6.3,88,0.00,,,0.00,WUHU21623XXSP,2013-03-23 07:20:00,
2013-03-23 03:25:00,27.5,24.4,29.78,WNW,292,6.7,7.4,88,0.00,,,0.00,WUHU21623XXSP,2013-03-23 07:25:00,
2013-03-23 03:30:00,27.5,24.4,29.79,WNW,292,7.6,7.6,88,0.00,,,0.00,WUHU21623XXSP,2013-03-23 07:30:00,
2013-03-23 03:35:00,27.5,24.4,29.78,WNW,292,1.6,11.0,88,0.00,,,0.00,WUHU21623XXSP,2013-03-23 07:35:00,
2013-03-23 03:40:00,27.3,24.2,29.78,West,270,4.5,11.0,88,0.00,,,0.00,WUHU21623XXSP,2013-03-23 07:40:00,
2013-03-23 03:45:00,27.3,24.2,29.77,West,270,4.5,8.3,88,0.00,,,0.00,WUHU21623XXSP,2013-03-23 07:45:00,
2013-03-23 03:50:00,27.3,24.2,29.77,WNW,292,6.7,8.3,88,0.00,,,0.00,WUHU21623XXSP,2013-03-23 07:50:00,
2013-03-23 03:55:00,27.3,24.2,29.77,WNW,292,1.6,7.6,88,0.00,,,0.00,WUHU21623XXSP,2013-03-23 07:55:00,
2013-03-23 04:00:00,27.1,24.0,29.77,WNW,292,0.7,9.4,88,0.00,,,0.00,WUHU21623XXSP,2013-03-23 08:00:00,
2013-03-23 04:05:00,27.1,24.0,29.77,WNW,292,6.3,9.4,88,0.00,,,0.00,WUHU21623XXSP,2013-03-23 08:05:00,
2013-03-23 04:10:00,27.1,24.0,29.77,WNW,292,7.4,7.4,88,0.00,,,0.00,WUHU21623XXSP,2013-03-23 08:10:00,
2013-03-23 04:15:00,27.1,24.0,29.77,West,270,5.6,7.4,88,0.00,,,0.00,WUHU21623XXSP,2013-03-23 08:15:00,
2013-03-23 04:20:00,27.1,24.0,29.77,NW,315,2.9,6.0,88,0.00,,,0.00,WUHU21623XXSP,2013-03-23 08:20:00,
2013-03-23 04:25:00,27.1,24.0,29.77,West,270,4.0,7.8,88,0.00,,,0.00,WUHU21623XXSP,2013-03-23 08:25:00,
2013-03-23 04:30:00,27.1,24.0,29.77,NW,315,8.1,8.1,88,0.00,,,0.00,WUHU21623XXSP,2013-03-23 08:30:00,
2013-03-23 04:35:00,27.1,24.0,29.77,NW,315,5.4,8.1,88,0.00,,,0.00,WUHU21623XXSP,2013-03-23 08:35:00,
2013-03-23 04:40:00,27.1,24.0,29.77,NW,315,7.8,7.8,88,0.00,,,0.00,WUHU21623XXSP,2013-03-23 08:40:00,
2013-03-23 04:45:00,27.3,24.2,29.78,NNW,337,9.2,9.2,88,0.00,,,0.00,WUHU21623XXSP,2013-03-23 08:45:00,
2013-03-23 04:50:00,27.1,24.0,29.78,NW,315,2.2,9.2,88,0.00,,,0.00,WUHU21623XXSP,2013-03-23 08:50:00,
2013-03-23 04:55:00,27.1,24.0,29.79,NW,315,7.4,8.7,88,0.00,,,0.00,WUHU21623XXSP,2013-03-23 08:55:00,
2013-03-23 05:00:00,27.1,24.0,29.78,NNW,337,6.3,8.7,88,0.00,,,0.00,WUHU21623XXSP,2013-03-23 09:00:00,
2013-03-23 05:05:00,27.1,24.0,29.78,NW,315,4.9,6.3,88,0.00,,,0.00,WUHU21623XXSP,2013-03-23 09:05:00,
2013-03-23 05:10:00,27.1,24.0,29.78,NW,315,6.0,6.3,88,0.00,,,0.00,WUHU21623XXSP,2013-03-23 09:10:00,
2013-03-23 05:15:00,27.1,24.0,29.79,NNW,337,4.9,7.8,88,0.00,,,0.00,WUHU21623XXSP,2013-03-23 09:15:00,
2013-03-23 05:20:00,26.8,23.7,29.79,NNW,337,2.5,7.8,88,0.00,,,0.00,WUHU21623XXSP,2013-03-23 09:20:00,
2013-03-23 05:25:00,26.4,23.3,29.79,NW,315,7.4,7.4,88,0.00,,,0.00,WUHU21623XXSP,2013-03-23 09:25:00,
2013-03-23 05:30:00,26.1,23.0,29.79,NNW,337,6.3,7.4,88,0.00,,,0.00,WUHU21623XXSP,2013-03-23 09:30:00,
2013-03-23 05:35:00,25.5,22.2,29.79,NNW,337,5.4,6.3,87,0.00,,,0.00,WUHU21623XXSP,2013-03-23 09:35:00,
2013-03-23 05:40:00,25.3,22.3,29.79,NNE,22,4.9,5.4,88,0.00,,,0.00,WUHU21623XXSP,2013-03-23 09:40:00,
2013-03-23 05:45:00,25.2,22.1,29.78,NNW,337,4.0,8.1,88,0.00,,,0.00,WUHU21623XXSP,2013-03-23 09:45:00,
2013-03-23 05:50:00,24.8,21.5,29.79,NNW,337,4.3,8.1,87,0.00,,,0.00,WUHU21623XXSP,2013-03-23 09:50:00,
2013-03-23 05:55:00,24.6,21.3,29.79,NNW,337,4.7,6.9,87,0.00,,,0.00,WUHU21623XXSP,2013-03-23 09:55:00,
2013-03-23 06:00:00,24.6,21.3,29.79,NNW,337,4.3,4.7,87,0.00,,,0.00,WUHU21623XXSP,2013-03-23 10:00:00,
2013-03-23 06:05:00,24.8,21.5,29.79,NNW,337,0.0,4.3,87,0.00,,,0.00,WUHU21623XXSP,2013-03-23 10:05:00,
2013-03-23 06:10:00,25.0,21.6,29.79,NNW,337,0.0,0.9,87,0.00,,,0.00,WUHU21623XXSP,2013-03-23 10:10:00,
2013-03-23 06:15:00,25.2,22.1,29.79,NNW,337,0.0,0.9,88,0.00,,,0.00,WUHU21623XXSP,2013-03-23 10:15:00,
2013-03-23 06:20:00,25.3,22.3,29.79,NW,315,0.4,4.7,88,0.00,,,0.00,WUHU21623XXSP,2013-03-23 10:20:00,
2013-03-23 06:25:00,25.3,22.3,29.79,NW,315,0.0,4.7,88,0.00,,,0.00,WUHU21623XXSP,2013-03-23 10:25:00,
2013-03-23 06:30:00,25.5,22.4,29.80,WNW,292,2.9,3.1,88,0.00,,,0.00,WUHU21623XXSP,2013-03-23 10:30:00,
2013-03-23 06:35:00,25.7,22.6,29.80,NNW,337,4.0,4.3,88,0.00,,,0.00,WUHU21623XXSP,2013-03-23 10:35:00,
2013-03-23 06:40:00,25.7,22.6,29.80,NW,315,2.2,4.3,88,0.00,,,0.00,WUHU21623XXSP,2013-03-23 10:40:00,
2013-03-23 06:45:00,25.9,22.8,29.80,NW,315,6.7,6.7,88,0.00,,,0.00,WUHU21623XXSP,2013-03-23 10:45:00,
2013-03-23 06:50:00,25.9,22.8,29.80,NW,315,4.3,6.7,88,0.00,,,0.00,WUHU21623XXSP,2013-03-23 10:50:00,
2013-03-23 06:55:00,25.9,22.8,29.80,NW,315,3.8,4.3,88,0.00,,,0.00,WUHU21623XXSP,2013-03-23 10:55:00,
2013-03-23 07:00:00,26.2,23.1,29.80,WNW,292,4.9,6.0,88,0.00,,,0.00,WUHU21623XXSP,2013-03-23 11:00:00,
2013-03-23 07:05:00,26.2,23.1,29.80,NNW,337,2.5,6.0,88,0.00,,,0.00,WUHU21623XXSP,2013-03-23 11:05:00,
2013-03-23 07:10:00,26.2,23.1,29.80,WNW,292,0.0,4.5,88,0.00,,,0.00,WUHU21623XXSP,2013-03-23 11:10:00,
2013-03-23 07:15:00,26.2,23.1,29.80,NW,315,7.2,7.2,88,0.00,,,0.00,WUHU21623XXSP,2013-03-23 11:15:00,
2013-03-23 07:20:00,26.2,23.1,29.81,WNW,292,3.8,7.2,88,0.00,,,0.00,WUHU21623XXSP,2013-03-23 11:20:00,
2013-03-23 07:25:00,26.2,23.1,29.81,West,270,5.6,8.1,88,0.00,,,0.00,WUHU21623XXSP,2013-03-23 11:25:00,
2013-03-23 07:30:00,26.4,23.3,29.81,WNW,292,5.8,8.1,88,0.00,,,0.00,WUHU21623XXSP,2013-03-23 11:30:00,
2013-03-23 07:35:00,26.4,23.3,29.81,WNW,292,4.9,5.8,88,0.00,,,0.00,WUHU21623XXSP,2013-03-23 11:35:00,
2013-03-23 07:40:00,26.4,23.3,29.80,WNW,292,4.9,4.9,88,0.00,,,0.00,WUHU21623XXSP,2013-03-23 11:40:00,
2013-03-23 07:45:00,26.8,23.4,29.80,NW,315,2.0,6.5,87,0.00,,,0.00,WUHU21623XXSP,2013-03-23 11:45:00,
2013-03-23 07:50:00,26.8,23.1,29.80,WNW,292,6.5,6.5,86,0.00,,,0.00,WUHU21623XXSP,2013-03-23 11:50:00,
2013-03-23 07:55:00,27.0,23.3,29.80,WNW,292,5.1,6.5,86,0.00,,,0.00,WUHU21623XXSP,2013-03-23 11:55:00,
2013-03-23 08:00:00,27.1,23.2,29.81,WSW,247,4.9,5.8,85,0.00,,,0.00,WUHU21623XXSP,2013-03-23 12:00:00,
2013-03-23 08:05:00,27.1,23.2,29.81,WNW,292,7.8,7.8,85,0.00,,,0.00,WUHU21623XXSP,2013-03-23 12:05:00,
2013-03-23 08:10:00,27.1,23.2,29.81,NW,315,7.4,7.8,85,0.00,,,0.00,WUHU21623XXSP,2013-03-23 12:10:00,
2013-03-23 08:15:00,27.1,23.2,29.81,WNW,292,2.0,7.4,85,0.00,,,0.00,WUHU21623XXSP,2013-03-23 12:15:00,
2013-03-23 08:20:00,27.1,23.2,29.81,WNW,292,2.0,7.4,85,0.00,,,0.00,WUHU21623XXSP,2013-03-23 12:20:00,
2013-03-23 08:25:00,27.3,23.4,29.81,West,270,0.0,4.0,85,0.00,,,0.00,WUHU21623XXSP,2013-03-23 12:25:00,
2013-03-23 08:30:00,27.5,23.0,29.81,WNW,292,6.0,6.5,83,0.00,,,0.00,WUHU21623XXSP,2013-03-23 12:30:00,
2013-03-23 08:35:00,27.5,23.0,29.82,NW,315,7.4,7.4,83,0.00,,,0.00,WUHU21623XXSP,2013-03-23 12:35:00,
2013-03-23 08:40:00,27.7,23.1,29.82,WNW,292,4.3,7.4,83,0.00,,,0.00,WUHU21623XXSP,2013-03-23 12:40:00,
2013-03-23 08:45:00,27.7,23.1,29.82,NNW,337,5.8,10.5,83,0.00,,,0.00,WUHU21623XXSP,2013-03-23 12:45:00,
2013-03-23 08:50:00,28.0,23.2,29.82,WNW,292,4.3,10.5,82,0.00,,,0.00,WUHU21623XXSP,2013-03-23 12:50:00,
2013-03-23 08:55:00,28.0,22.9,29.82,NW,315,8.9,8.9,81,0.00,,,0.00,WUHU21623XXSP,2013-03-23 12:55:00,
2013-03-23 09:00:00,28.0,23.2,29.82,WNW,292,4.5,8.9,82,0.00,,,0.00,WUHU21623XXSP,2013-03-23 13:00:00,
2013-03-23 09:05:00,28.6,23.2,29.82,West,270,6.0,6.0,80,0.00,,,0.00,WUHU21623XXSP,2013-03-23 13:05:00,
2013-03-23 09:10:00,28.8,23.0,29.82,West,270,4.0,6.0,79,0.00,,,0.00,WUHU21623XXSP,2013-03-23 13:10:00,
2013-03-23 09:15:00,30.0,23.0,29.82,West,270,5.8,8.5,75,0.00,,,0.00,WUHU21623XXSP,2013-03-23 13:15:00,
2013-03-23 09:20:00,30.9,23.6,29.82,NNW,337,6.5,8.5,74,0.00,,,0.00,WUHU21623XXSP,2013-03-23 13:20:00,
2013-03-23 09:25:00,30.7,23.1,29.82,NW,315,7.4,7.4,73,0.00,,,0.00,WUHU21623XXSP,2013-03-23 13:25:00,
2013-03-23 09:30:00,30.7,23.1,29.82,West,270,5.1,7.4,73,0.00,,,0.00,WUHU21623XXSP,2013-03-23 13:30:00,
2013-03-23 09:35:00,29.8,22.2,29.82,WNW,292,6.5,7.4,73,0.00,,,0.00,WUHU21623XXSP,2013-03-23 13:35:00,
2013-03-23 09:40:00,29.8,22.2,29.82,WNW,292,6.5,6.5,73,0.00,,,0.00,WUHU21623XXSP,2013-03-23 13:40:00,
2013-03-23 09:45:00,30.4,22.7,29.82,West,270,6.0,6.5,73,0.00,,,0.00,WUHU21623XXSP,2013-03-23 13:45:00,
2013-03-23 09:50:00,30.4,22.7,29.82,West,270,6.0,6.0,73,0.00,,,0.00,WUHU21623XXSP,2013-03-23 13:50:00,
2013-03-23 09:55:00,30.4,22.7,29.81,West,270,6.0,6.0,73,0.00,,,0.00,WUHU21623XXSP,2013-03-23 13:55:00,
2013-03-23 10:00:00,32.5,23.1,29.81,NNW,337,7.8,7.8,68,0.00,,,0.00,WUHU21623XXSP,2013-03-23 14:00:00,
2013-03-23 10:05:00,32.2,22.8,29.81,NNW,337,10.3,10.3,68,0.00,,,0.00,WUHU21623XXSP,2013-03-23 14:05:00,
2013-03-23 10:10:00,32.9,22.7,29.82,NW,315,7.4,10.3,66,0.00,,,0.00,WUHU21623XXSP,2013-03-23 14:10:00,
2013-03-23 10:15:00,32.4,22.2,29.81,North,0,13.4,13.4,66,0.00,,,0.00,WUHU21623XXSP,2013-03-23 14:15:00,
2013-03-23 10:20:00,33.3,22.7,29.81,NW,315,7.6,13.4,65,0.00,,,0.00,WUHU21623XXSP,2013-03-23 14:20:00,
2013-03-23 10:25:00,32.7,22.6,29.81,WNW,292,10.7,10.7,66,0.00,,,0.00,WUHU21623XXSP,2013-03-23 14:25:00,
2013-03-23 10:30:00,32.4,22.6,29.82,NNW,337,6.7,10.7,67,0.00,,,0.00,WUHU21623XXSP,2013-03-23 14:30:00,
2013-03-23 10:35:00,31.8,22.5,29.82,WNW,292,4.9,8.3,68,0.00,,,0.00,WUHU21623XXSP,2013-03-23 14:35:00,
2013-03-23 10:40:00,32.2,22.1,29.82,NW,315,8.3,8.3,66,0.00,,,0.00,WUHU21623XXSP,2013-03-23 14:40:00,
2013-03-23 10:45:00,32.5,22.4,29.82,NW,315,7.6,10.1,66,0.00,,,0.00,WUHU21623XXSP,2013-03-23 14:45:00,
2013-03-23 10:50:00,32.7,22.6,29.82,NW,315,5.6,10.1,66,0.00,,,0.00,WUHU21623XXSP,2013-03-23 14:50:00,
2013-03-23 10:55:00,32.4,22.6,29.82,NNW,337,14.5,14.5,67,0.00,,,0.00,WUHU21623XXSP,2013-03-23 14:55:00,
2013-03-23 11:00:00,32.4,22.6,29.82,West,270,6.7,14.5,67,0.00,,,0.00,WUHU21623XXSP,2013-03-23 15:00:00,
2013-03-23 11:05:00,32.7,22.9,29.82,NNW,337,9.8,14.5,67,0.00,,,0.00,WUHU21623XXSP,2013-03-23 15:05:00,
2013-03-23 11:10:00,32.7,22.9,29.82,NNW,337,9.8,9.8,67,0.00,,,0.00,WUHU21623XXSP,2013-03-23 15:10:00,
2013-03-23 11:15:00,31.8,22.1,29.82,NW,315,7.8,9.8,67,0.00,,,0.00,WUHU21623XXSP,2013-03-23 15:15:00,
2013-03-23 11:20:00,31.8,22.1,29.82,NW,315,7.8,7.8,67,0.00,,,0.00,WUHU21623XXSP,2013-03-23 15:20:00,
2013-03-23 11:25:00,32.4,22.6,29.82,WNW,292,10.1,10.1,67,0.00,,,0.00,WUHU21623XXSP,2013-03-23 15:25:00,
2013-03-23 11:30:00,32.4,22.6,29.83,WNW,292,7.6,10.1,67,0.00,,,0.00,WUHU21623XXSP,2013-03-23 15:30:00,
2013-03-23 11:35:00,32.4,22.6,29.82,WNW,292,7.6,7.6,67,0.00,,,0.00,WUHU21623XXSP,2013-03-23 15:35:00,
2013-03-23 11:40:00,32.4,22.6,29.82,WNW,292,7.6,7.6,67,0.00,,,0.00,WUHU21623XXSP,2013-03-23 15:40:00,
2013-03-23 11:45:00,32.4,22.6,29.82,WNW,292,7.6,7.6,67,0.00,,,0.00,WUHU21623XXSP,2013-03-23 15:45:00,
2013-03-23 11:50:00,34.3,23.0,29.82,NW,315,12.1,12.1,63,0.00,,,0.00,WUHU21623XXSP,2013-03-23 15:50:00,
2013-03-23 11:55:00,34.0,23.4,29.82,West,270,8.3,12.1,65,0.00,,,0.00,WUHU21623XXSP,2013-03-23 15:55:00,
2013-03-23 12:00:00,34.0,23.4,29.82,West,270,8.3,12.1,65,0.00,,,0.00,WUHU21623XXSP,2013-03-23 16:00:00,
2013-03-23 12:05:00,34.0,23.4,29.83,West,270,8.3,8.3,65,0.00,,,0.00,WUHU21623XXSP,2013-03-23 16:05:00,
2013-03-23 12:06:00,34.0,23.4,29.83,West,270,8.3,8.3,65,0.00,,,0.00,WUHU21623XXSP,2013-03-23 16:06:00,
2013-03-23 12:10:00,34.0,23.4,29.83,West,270,8.3,8.3,65,0.00,,,0.00,WUHU21623XXSP,2013-03-23 16:10:00,
2013-03-23 12:15:00,34.0,23.4,29.83,West,270,8.3,8.3,65,0.00,,,0.00,WUHU21623XXSP,2013-03-23 16:15:00,
2013-03-23 12:27:00,33.6,22.3,29.83,West,270,11.0,11.0,63,0.00,,,0.00,WUHU21623XXSP,2013-03-23 16:27:00,
2013-03-23 12:32:00,33.6,22.3,29.83,West,270,11.0,11.0,63,0.00,,,0.00,WUHU21623XXSP,2013-03-23 16:32:00,
2013-03-23 12:37:00,33.6,22.3,29.83,West,270,11.0,11.0,63,0.00,,,0.00,WUHU21623XXSP,2013-03-23 16:37:00,
2013-03-23 12:42:00,32.7,22.2,29.83,WNW,292,7.2,11.0,65,0.00,,,0.00,WUHU21623XXSP,2013-03-23 16:42:00,
2013-03-23 12:47:00,32.7,22.2,29.83,West,270,9.6,11.0,65,0.00,,,0.00,WUHU21623XXSP,2013-03-23 16:47:00,
2013-03-23 12:52:00,32.9,21.6,29.83,NW,315,8.3,9.6,63,0.00,,,0.00,WUHU21623XXSP,2013-03-23 16:52:00,
2013-03-23 12:57:00,33.4,22.1,29.83,NW,315,9.2,9.2,63,0.00,,,0.00,WUHU21623XXSP,2013-03-23 16:57:00,
2013-03-23 13:02:00,33.4,22.1,29.83,NW,315,9.2,9.2,63,0.00,,,0.00,WUHU21623XXSP,2013-03-23 17:02:00,
2013-03-23 13:07:00,32.7,22.2,29.83,NNW,337,11.4,11.4,65,0.00,,,0.00,WUHU21623XXSP,2013-03-23 17:07:00,
2013-03-23 13:12:00,32.7,22.2,29.83,NNW,337,11.4,11.4,65,0.00,,,0.00,WUHU21623XXSP,2013-03-23 17:12:00,
2013-03-23 13:17:00,32.7,22.2,29.83,NNW,337,11.4,11.4,65,0.00,,,0.00,WUHU21623XXSP,2013-03-23 17:17:00,
2013-03-23 13:22:00,32.7,22.2,29.83,NNW,337,11.4,11.4,65,0.00,,,0.00,WUHU21623XXSP,2013-03-23 17:22:00,
2013-03-23 13:27:00,34.7,22.6,29.83,West,270,5.6,11.4,61,0.00,,,0.00,WUHU21623XXSP,2013-03-23 17:27:00,
2013-03-23 13:32:00,34.7,22.6,29.83,West,270,5.6,11.4,61,0.00,,,0.00,WUHU21623XXSP,2013-03-23 17:32:00,
2013-03-23 13:37:00,34.7,22.6,29.83,West,270,5.6,5.6,61,0.00,,,0.00,WUHU21623XXSP,2013-03-23 17:37:00,
2013-03-23 13:39:00,34.7,22.6,29.82,West,270,5.6,5.6,61,0.00,,,0.00,WUHU21623XXSP,2013-03-23 17:39:00,
2013-03-23 13:42:00,34.7,22.6,29.83,West,270,5.6,5.6,61,0.00,,,0.00,WUHU21623XXSP,2013-03-23 17:42:00,
2013-03-23 13:47:00,34.7,22.6,29.82,West,270,5.6,5.6,61,0.00,,,0.00,WUHU21623XXSP,2013-03-23 17:47:00,
2013-03-23 15:03:00,35.4,20.8,29.82,West,270,6.5,6.5,55,0.00,,,0.00,WUHU21623XXSP,2013-03-23 19:03:00,
2013-03-23 15:08:00,35.4,20.8,29.82,West,270,6.5,6.5,55,0.00,,,0.00,WUHU21623XXSP,2013-03-23 19:08:00,
2013-03-23 15:13:00,35.8,20.8,29.82,WSW,247,8.7,8.7,54,0.00,,,0.00,WUHU21623XXSP,2013-03-23 19:13:00,
2013-03-23 15:18:00,37.2,22.0,29.82,WSW,247,6.5,8.7,54,0.00,,,0.00,WUHU21623XXSP,2013-03-23 19:18:00,
2013-03-23 15:23:00,37.9,22.3,29.82,WSW,247,4.9,6.7,53,0.00,,,0.00,WUHU21623XXSP,2013-03-23 19:23:00,
2013-03-23 15:28:00,36.7,20.7,29.82,WNW,292,13.4,13.4,52,0.00,,,0.00,WUHU21623XXSP,2013-03-23 19:28:00,
2013-03-23 15:33:00,36.7,20.7,29.82,WNW,292,13.4,13.4,52,0.00,,,0.00,WUHU21623XXSP,2013-03-23 19:33:00,
2013-03-23 15:38:00,34.3,20.2,29.82,NW,315,5.1,13.4,56,0.00,,,0.00,WUHU21623XXSP,2013-03-23 19:38:00,
2013-03-23 15:43:00,34.3,20.2,29.82,NW,315,5.1,13.4,56,0.00,,,0.00,WUHU21623XXSP,2013-03-23 19:43:00,
2013-03-23 15:48:00,34.5,20.4,29.82,West,270,13.6,13.6,56,0.00,,,0.00,WUHU21623XXSP,2013-03-23 19:48:00,
2013-03-23 15:53:00,34.5,20.4,29.82,West,270,13.6,13.6,56,0.00,,,0.00,WUHU21623XXSP,2013-03-23 19:53:00,
2013-03-23 15:58:00,34.0,19.8,29.82,West,270,8.9,13.6,56,0.00,,,0.00,WUHU21623XXSP,2013-03-23 19:58:00,
2013-03-23 16:03:00,34.0,19.8,29.82,WNW,292,8.7,8.9,56,0.00,,,0.00,WUHU21623XXSP,2013-03-23 20:03:00,
2013-03-23 16:08:00,34.0,19.8,29.82,NW,315,7.8,8.7,56,0.00,,,0.00,WUHU21623XXSP,2013-03-23 20:08:00,
2013-03-23 16:13:00,34.3,22.3,29.83,NW,315,9.6,9.6,61,0.00,,,0.00,WUHU21623XXSP,2013-03-23 20:13:00,
2013-03-23 16:18:00,34.3,22.3,29.83,WNW,292,6.0,9.6,61,0.00,,,0.00,WUHU21623XXSP,2013-03-23 20:18:00,
2013-03-23 16:23:00,33.8,22.1,29.83,WNW,292,6.7,9.6,62,0.00,,,0.00,WUHU21623XXSP,2013-03-23 20:23:00,
2013-03-23 16:28:00,33.8,22.1,29.83,WNW,292,6.7,8.5,62,0.00,,,0.00,WUHU21623XXSP,2013-03-23 20:28:00,
2013-03-23 16:33:00,33.8,22.1,29.82,NNW,337,8.9,8.9,62,0.00,,,0.00,WUHU21623XXSP,2013-03-23 20:33:00,
2013-03-23 16:38:00,33.6,22.3,29.83,West,270,7.4,8.9,63,0.00,,,0.00,WUHU21623XXSP,2013-03-23 20:38:00,
2013-03-23 16:43:00,33.6,22.3,29.84,NW,315,11.0,11.0,63,0.00,,,0.00,WUHU21623XXSP,2013-03-23 20:43:00,
2013-03-23 16:48:00,33.6,21.6,29.84,West,270,7.6,11.0,61,0.00,,,0.00,WUHU21623XXSP,2013-03-23 20:48:00,
2013-03-23 16:53:00,33.6,21.2,29.84,West,270,5.1,11.2,60,0.00,,,0.00,WUHU21623XXSP,2013-03-23 20:53:00,
2013-03-23 16:59:00,33.6,21.2,29.84,West,270,5.1,11.2,60,0.00,,,0.00,WUHU21623XXSP,2013-03-23 20:59:00,
2013-03-23 17:04:00,33.6,21.2,29.83,West,270,5.1,5.1,60,0.00,,,0.00,WUHU21623XXSP,2013-03-23 21:04:00,
2013-03-23 17:09:00,33.3,21.2,29.84,West,270,5.1,5.1,61,0.00,,,0.00,WUHU21623XXSP,2013-03-23 21:09:00,
2013-03-23 17:14:00,32.9,21.3,29.84,NNW,337,13.6,13.6,62,0.00,,,0.00,WUHU21623XXSP,2013-03-23 21:14:00,
2013-03-23 17:19:00,32.7,21.8,29.84,NNW,337,11.0,13.6,64,0.00,,,0.00,WUHU21623XXSP,2013-03-23 21:19:00,
2013-03-23 17:24:00,32.7,21.8,29.85,NW,315,9.8,11.0,64,0.00,,,0.00,WUHU21623XXSP,2013-03-23 21:24:00,
2013-03-23 17:28:00,32.7,21.8,29.85,NW,315,9.8,11.0,64,0.00,,,0.00,WUHU21623XXSP,2013-03-23 21:28:00,
2013-03-23 17:34:00,32.4,21.9,29.85,NNW,337,10.5,10.5,65,0.00,,,0.00,WUHU21623XXSP,2013-03-23 21:34:00,
2013-03-23 17:39:00,32.4,21.9,29.85,NNW,337,10.5,10.5,65,0.00,,,0.00,WUHU21623XXSP,2013-03-23 21:39:00,
2013-03-23 17:44:00,32.2,21.7,29.85,NW,315,12.3,12.3,65,0.00,,,0.00,WUHU21623XXSP,2013-03-23 21:44:00,
2013-03-23 17:49:00,32.0,21.6,29.85,NNW,337,9.6,12.3,65,0.00,,,0.00,WUHU21623XXSP,2013-03-23 21:49:00,
2013-03-23 17:54:00,31.8,21.7,29.85,NW,315,9.4,9.6,66,0.00,,,0.00,WUHU21623XXSP,2013-03-23 21:54:00,
2013-03-23 17:58:00,31.8,21.7,29.86,West,270,13.9,13.9,66,0.00,,,0.00,WUHU21623XXSP,2013-03-23 21:58:00,
2013-03-23 18:03:00,31.8,21.7,29.86,WNW,292,10.7,13.9,66,0.00,,,0.00,WUHU21623XXSP,2013-03-23 22:03:00,
2013-03-23 18:08:00,31.8,21.7,29.86,NW,315,3.6,10.7,66,0.00,,,0.00,WUHU21623XXSP,2013-03-23 22:08:00,
2013-03-23 18:14:00,31.8,21.7,29.86,NW,315,3.6,10.7,66,0.00,,,0.00,WUHU21623XXSP,2013-03-23 22:14:00,
2013-03-23 18:19:00,31.8,21.7,29.87,NW,315,12.8,13.0,66,0.00,,,0.00,WUHU21623XXSP,2013-03-23 22:19:00,
2013-03-23 18:24:00,31.8,21.4,29.87,WNW,292,8.1,13.0,65,0.00,,,0.00,WUHU21623XXSP,2013-03-23 22:24:00,
2013-03-23 18:29:00,31.8,21.4,29.87,NW,315,8.1,12.8,65,0.00,,,0.00,WUHU21623XXSP,2013-03-23 22:29:00,
2013-03-23 18:34:00,31.8,21.4,29.86,NNW,337,8.7,9.6,65,0.00,,,0.00,WUHU21623XXSP,2013-03-23 22:34:00,
2013-03-23 18:39:00,31.8,21.4,29.86,NNW,337,6.9,9.6,65,0.00,,,0.00,WUHU21623XXSP,2013-03-23 22:39:00,
2013-03-23 18:44:00,31.8,21.4,29.86,NW,315,8.3,8.3,65,0.00,,,0.00,WUHU21623XXSP,2013-03-23 22:44:00,
2013-03-23 18:49:00,31.8,21.4,29.87,NNW,337,7.6,8.3,65,0.00,,,0.00,WUHU21623XXSP,2013-03-23 22:49:00,
2013-03-23 18:54:00,31.6,21.2,29.87,WNW,292,9.6,9.6,65,0.00,,,0.00,WUHU21623XXSP,2013-03-23 22:54:00,
2013-03-23 18:59:00,31.6,21.6,29.87,NW,315,6.9,9.6,66,0.00,,,0.00,WUHU21623XXSP,2013-03-23 22:59:00,
2013-03-23 19:04:00,31.6,21.6,29.87,NW,315,10.5,11.2,66,0.00,,,0.00,WUHU21623XXSP,2013-03-23 23:04:00,
2013-03-23 19:09:00,31.5,21.4,29.88,NNW,337,10.1,11.2,66,0.00,,,0.00,WUHU21623XXSP,2013-03-23 23:09:00,
2013-03-23 19:14:00,31.3,21.2,29.88,NNW,337,9.8,10.1,66,0.00,,,0.00,WUHU21623XXSP,2013-03-23 23:14:00,
2013-03-23 19:19:00,31.3,21.2,29.87,NW,315,14.5,14.5,66,0.00,,,0.00,WUHU21623XXSP,2013-03-23 23:19:00,
2013-03-23 19:24:00,31.3,21.2,29.87,NNW,337,5.8,14.5,66,0.00,,,0.00,WUHU21623XXSP,2013-03-23 23:24:00,
2013-03-23 19:29:00,31.3,21.2,29.87,NNW,337,11.0,11.0,66,0.00,,,0.00,WUHU21623XXSP,2013-03-23 23:29:00,
2013-03-23 19:34:00,31.3,21.2,29.87,NNW,337,11.0,11.0,66,0.00,,,0.00,WUHU21623XXSP,2013-03-23 23:34:00,
2013-03-23 19:39:00,31.3,21.2,29.88,NW,315,8.3,11.0,66,0.00,,,0.00,WUHU21623XXSP,2013-03-23 23:39:00,
2013-03-23 19:44:00,31.3,21.2,29.88,NW,315,8.3,8.3,66,0.00,,,0.00,WUHU21623XXSP,2013-03-23 23:44:00,
2013-03-23 19:49:00,31.3,21.2,29.88,NW,315,8.3,8.3,66,0.00,,,0.00,WUHU21623XXSP,2013-03-23 23:49:00,
2013-03-23 19:54:00,31.3,21.2,29.88,NW,315,8.3,8.3,66,0.00,,,0.00,WUHU21623XXSP,2013-03-23 23:54:00,
2013-03-23 19:59:00,31.1,21.0,29.88,WNW,292,6.5,8.3,66,0.00,,,0.00,WUHU21623XXSP,2013-03-23 23:59:00,
2013-03-23 20:04:00,31.1,21.4,29.88,NNW,337,6.9,10.7,67,0.00,,,0.00,WUHU21623XXSP,2013-03-24 00:04:00,
2013-03-23 20:09:00,30.9,21.2,29.88,WNW,292,9.8,10.7,67,0.00,,,0.00,WUHU21623XXSP,2013-03-24 00:09:00,
2013-03-23 20:14:00,30.9,21.2,29.88,NNW,337,10.5,10.5,67,0.00,,,0.00,WUHU21623XXSP,2013-03-24 00:14:00,
2013-03-23 20:19:00,30.9,21.2,29.88,WNW,292,8.3,11.0,67,0.00,,,0.00,WUHU21623XXSP,2013-03-24 00:19:00,
2013-03-23 20:24:00,30.9,21.2,29.88,WNW,292,8.3,11.0,67,0.00,,,0.00,WUHU21623XXSP,2013-03-24 00:24:00,
2013-03-23 20:29:00,30.9,21.2,29.88,WNW,292,8.3,8.3,67,0.00,,,0.00,WUHU21623XXSP,2013-03-24 00:29:00,
2013-03-23 20:34:00,30.9,21.6,29.88,NW,315,4.9,8.3,68,0.00,,,0.00,WUHU21623XXSP,2013-03-24 00:34:00,
2013-03-23 20:39:00,30.9,21.2,29.88,NW,315,7.8,7.8,67,0.00,,,0.00,WUHU21623XXSP,2013-03-24 00:39:00,
2013-03-23 20:44:00,30.9,21.2,29.89,NW,315,5.1,7.8,67,0.00,,,0.00,WUHU21623XXSP,2013-03-24 00:44:00,
2013-03-23 20:49:00,30.9,21.2,29.88,NW,315,11.9,11.9,67,0.00,,,0.00,WUHU21623XXSP,2013-03-24 00:49:00,
2013-03-23 20:54:00,30.7,21.4,29.89,NW,315,7.2,11.9,68,0.00,,,0.00,WUHU21623XXSP,2013-03-24 00:54:00,
2013-03-23 20:59:00,30.7,21.4,29.89,WNW,292,3.4,7.2,68,0.00,,,0.00,WUHU21623XXSP,2013-03-24 00:59:00,
2013-03-23 21:04:00,30.7,21.4,29.89,WNW,292,2.5,8.1,68,0.00,,,0.00,WUHU21623XXSP,2013-03-24 01:04:00,
2013-03-23 21:09:00,30.4,21.0,29.89,WNW,292,6.5,8.1,68,0.00,,,0.00,WUHU21623XXSP,2013-03-24 01:09:00,
2013-03-23 21:14:00,30.4,21.0,29.89,NNW,337,6.9,6.9,68,0.00,,,0.00,WUHU21623XXSP,2013-03-24 01:14:00,
2013-03-23 21:19:00,30.4,21.4,29.89,WNW,292,2.5,6.9,69,0.00,,,0.00,WUHU21623XXSP,2013-03-24 01:19:00,
2013-03-23 21:24:00,30.0,21.0,29.89,NW,315,3.8,4.7,69,0.00,,,0.00,WUHU21623XXSP,2013-03-24 01:24:00,
2013-03-23 21:29:00,30.0,21.0,29.89,NW,315,7.2,7.2,69,0.00,,,0.00,WUHU21623XXSP,2013-03-24 01:29:00,
2013-03-23 21:34:00,30.0,20.7,29.89,WNW,292,2.5,7.2,68,0.00,,,0.00,WUHU21623XXSP,2013-03-24 01:34:00,
2013-03-23 21:39:00,29.8,20.5,29.89,WNW,292,6.7,6.7,68,0.00,,,0.00,WUHU21623XXSP,2013-03-24 01:39:00,
2013-03-23 21:44:00,29.7,20.7,29.89,NW,315,6.7,6.7,69,0.00,,,0.00,WUHU21623XXSP,2013-03-24 01:44:00,
2013-03-23 21:49:00,29.5,20.6,29.89,WNW,292,4.0,6.7,69,0.00,,,0.00,WUHU21623XXSP,2013-03-24 01:49:00,
2013-03-23 21:54:00,29.5,20.6,29.89,WNW,292,5.4,8.3,69,0.00,,,0.00,WUHU21623XXSP,2013-03-24 01:54:00,
2013-03-23 21:59:00,29.7,20.7,29.90,NW,315,5.1,8.3,69,0.00,,,0.00,WUHU21623XXSP,2013-03-24 01:59:00,
2013-03-23 22:04:00,29.7,21.1,29.90,NW,315,6.7,6.7,70,0.00,,,0.00,WUHU21623XXSP,2013-03-24 02:04:00,
2013-03-23 22:09:00,29.5,20.9,29.90,WNW,292,6.7,6.7,70,0.00,,,0.00,WUHU21623XXSP,2013-03-24 02:09:00,
2013-03-23 22:14:00,29.5,20.9,29.90,NW,315,1.3,6.7,70,0.00,,,0.00,WUHU21623XXSP,2013-03-24 02:14:00,
2013-03-23 22:19:00,29.7,21.1,29.90,WNW,292,4.7,5.8,70,0.00,,,0.00,WUHU21623XXSP,2013-03-24 02:19:00,
2013-03-23 22:24:00,29.8,21.2,29.90,WNW,292,4.9,4.9,70,0.00,,,0.00,WUHU21623XXSP,2013-03-24 02:24:00,
2013-03-23 22:29:00,29.8,21.2,29.90,NW,315,4.0,6.3,70,0.00,,,0.00,WUHU21623XXSP,2013-03-24 02:29:00,
2013-03-23 22:34:00,30.0,21.4,29.90,NW,315,8.1,9.6,70,0.00,,,0.00,WUHU21623XXSP,2013-03-24 02:34:00,
2013-03-23 22:39:00,29.8,21.2,29.90,NW,315,9.2,9.6,70,0.00,,,0.00,WUHU21623XXSP,2013-03-24 02:39:00,
2013-03-23 22:44:00,29.8,21.5,29.90,WNW,292,6.5,9.2,71,0.00,,,0.00,WUHU21623XXSP,2013-03-24 02:44:00,
2013-03-23 22:49:00,29.8,21.5,29.89,WNW,292,8.7,8.7,71,0.00,,,0.00,WUHU21623XXSP,2013-03-24 02:49:00,
2013-03-23 22:54:00,29.8,21.5,29.89,NW,315,6.3,8.7,71,0.00,,,0.00,WUHU21623XXSP,2013-03-24 02:54:00,
2013-03-23 22:59:00,29.8,21.5,29.89,NNW,337,6.9,6.9,71,0.00,,,0.00,WUHU21623XXSP,2013-03-24 02:59:00,
2013-03-23 23:04:00,29.8,21.5,29.89,NW,315,6.0,7.4,71,0.00,,,0.00,WUHU21623XXSP,2013-03-24 03:04:00,
2013-03-23 23:09:00,29.8,21.5,29.88,WNW,292,6.5,7.4,71,0.00,,,0.00,WUHU21623XXSP,2013-03-24 03:09:00,
2013-03-23 23:14:00,29.8,21.5,29.88,NNW,337,6.9,6.9,71,0.00,,,0.00,WUHU21623XXSP,2013-03-24 03:14:00,
2013-03-23 23:19:00,29.8,21.5,29.88,NW,315,7.4,7.4,71,0.00,,,0.00,WUHU21623XXSP,2013-03-24 03:19:00,
2013-03-23 23:24:00,29.5,21.2,29.88,West,270,2.2,7.4,71,0.00,,,0.00,WUHU21623XXSP,2013-03-24 03:24:00,
2013-03-23 23:29:00,29.5,21.2,29.88,NW,315,5.8,5.8,71,0.00,,,0.00,WUHU21623XXSP,2013-03-24 03:29:00,
2013-03-23 23:34:00,29.5,21.5,29.88,NW,315,5.8,5.8,72,0.00,,,0.00,WUHU21623XXSP,2013-03-24 03:34:00,
2013-03-23 23:39:00,29.5,21.5,29.88,WNW,292,2.9,7.6,72,0.00,,,0.00,WUHU21623XXSP,2013-03-24 03:39:00,
2013-03-23 23:44:00,29.5,21.5,29.88,WSW,247,7.2,7.6,72,0.00,,,0.00,WUHU21623XXSP,2013-03-24 03:44:00,
2013-03-23 23:49:00,29.5,21.5,29.88,WNW,292,1.3,7.2,72,0.00,,,0.00,WUHU21623XXSP,2013-03-24 03:49:00,
2013-03-23 23:54:00,29.7,21.4,29.88,NW,315,2.5,4.3,71,0.00,,,0.00,WUHU21623XXSP,2013-03-24 03:54:00,
2013-03-23 23:59:00,29.5,21.2,29.88,WNW,292,3.6,5.1,71,0.00,,,0.00,WUHU21623XXSP,2013-03-24 03:59:00,